sensor_id;sensor_type;location;lat;lon;timestamp;P1;durP1;ratioP1;P2;durP2;ratioP2
13973;SDS011;7060;43.770;4.008;2023-12-20T00:00:16;6.23;;;3.63;;
13973;SDS011;7060;43.770;4.008;2023-12-20T00:02:46;3.77;;;1.67;;
13973;SDS011;7060;43.770;4.008;2023-12-20T00:05:14;2.53;;;1.00;;
13973;SDS011;7060;43.770;4.008;2023-12-20T00:07:45;1.37;;;0.93;;
13973;SDS011;7060;43.770;4.008;2023-12-20T00:10:14;5.80;;;1.90;;
13973;SDS011;7060;43.770;4.008;2023-12-20T00:12:43;6.57;;;2.33;;
13973;SDS011;7060;43.770;4.008;2023-12-20T00:15:11;7.10;;;2.57;;
13973;SDS011;7060;43.770;4.008;2023-12-20T00:17:40;11.37;;;4.80;;
13973;SDS011;7060;43.770;4.008;2023-12-20T00:20:09;9.77;;;5.07;;
13973;SDS011;7060;43.770;4.008;2023-12-20T00:22:39;8.80;;;2.93;;
13973;SDS011;7060;43.770;4.008;2023-12-20T00:25:09;6.47;;;2.57;;
13973;SDS011;7060;43.770;4.008;2023-12-20T00:27:37;4.47;;;1.80;;
13973;SDS011;7060;43.770;4.008;2023-12-20T00:30:07;4.00;;;1.63;;
13973;SDS011;7060;43.770;4.008;2023-12-20T00:32:36;3.20;;;1.63;;
13973;SDS011;7060;43.770;4.008;2023-12-20T00:35:06;1.90;;;1.00;;
13973;SDS011;7060;43.770;4.008;2023-12-20T00:37:35;2.77;;;1.00;;
13973;SDS011;7060;43.770;4.008;2023-12-20T00:40:04;7.97;;;3.47;;
13973;SDS011;7060;43.770;4.008;2023-12-20T00:42:35;5.70;;;3.33;;
13973;SDS011;7060;43.770;4.008;2023-12-20T00:45:04;7.67;;;2.97;;
13973;SDS011;7060;43.770;4.008;2023-12-20T00:47:33;4.93;;;2.40;;
13973;SDS011;7060;43.770;4.008;2023-12-20T00:50:02;5.37;;;2.03;;
13973;SDS011;7060;43.770;4.008;2023-12-20T00:52:32;3.43;;;1.73;;
13973;SDS011;7060;43.770;4.008;2023-12-20T00:55:00;2.83;;;1.73;;
13973;SDS011;7060;43.770;4.008;2023-12-20T00:57:29;2.83;;;1.57;;
13973;SDS011;7060;43.770;4.008;2023-12-20T01:00:00;2.27;;;1.50;;
13973;SDS011;7060;43.770;4.008;2023-12-20T01:02:29;1.90;;;1.13;;
13973;SDS011;7060;43.770;4.008;2023-12-20T01:04:57;1.37;;;0.73;;
13973;SDS011;7060;43.770;4.008;2023-12-20T01:07:26;2.00;;;0.83;;
13973;SDS011;7060;43.770;4.008;2023-12-20T01:09:55;1.93;;;0.93;;
13973;SDS011;7060;43.770;4.008;2023-12-20T01:12:24;1.70;;;1.00;;
13973;SDS011;7060;43.770;4.008;2023-12-20T01:14:51;2.43;;;1.27;;
13973;SDS011;7060;43.770;4.008;2023-12-20T01:17:22;2.03;;;1.00;;
13973;SDS011;7060;43.770;4.008;2023-12-20T01:19:50;2.53;;;1.30;;
13973;SDS011;7060;43.770;4.008;2023-12-20T01:22:22;3.07;;;1.43;;
13973;SDS011;7060;43.770;4.008;2023-12-20T01:24:54;2.57;;;1.20;;
13973;SDS011;7060;43.770;4.008;2023-12-20T01:27:25;2.93;;;1.70;;
13973;SDS011;7060;43.770;4.008;2023-12-20T01:29:54;3.90;;;2.07;;
13973;SDS011;7060;43.770;4.008;2023-12-20T01:32:25;5.57;;;2.13;;
13973;SDS011;7060;43.770;4.008;2023-12-20T01:34:54;3.53;;;1.73;;
13973;SDS011;7060;43.770;4.008;2023-12-20T01:37:28;3.20;;;1.47;;
13973;SDS011;7060;43.770;4.008;2023-12-20T01:39:57;3.43;;;1.40;;
13973;SDS011;7060;43.770;4.008;2023-12-20T01:42:29;2.20;;;1.17;;
13973;SDS011;7060;43.770;4.008;2023-12-20T01:45:00;1.87;;;1.13;;
13973;SDS011;7060;43.770;4.008;2023-12-20T01:47:30;2.70;;;1.40;;
13973;SDS011;7060;43.770;4.008;2023-12-20T01:49:59;2.10;;;1.13;;
13973;SDS011;7060;43.770;4.008;2023-12-20T01:52:30;2.53;;;1.70;;
13973;SDS011;7060;43.770;4.008;2023-12-20T01:55:01;3.00;;;1.53;;
13973;SDS011;7060;43.770;4.008;2023-12-20T01:57:33;3.30;;;2.00;;
13973;SDS011;7060;43.770;4.008;2023-12-20T02:00:02;3.13;;;1.97;;
13973;SDS011;7060;43.770;4.008;2023-12-20T02:02:32;4.40;;;1.83;;
13973;SDS011;7060;43.770;4.008;2023-12-20T02:05:01;3.27;;;2.03;;
13973;SDS011;7060;43.770;4.008;2023-12-20T02:07:31;3.83;;;2.07;;
13973;SDS011;7060;43.770;4.008;2023-12-20T02:10:00;3.53;;;2.10;;
13973;SDS011;7060;43.770;4.008;2023-12-20T02:12:29;2.90;;;1.70;;
13973;SDS011;7060;43.770;4.008;2023-12-20T02:14:57;4.63;;;2.30;;
13973;SDS011;7060;43.770;4.008;2023-12-20T02:17:26;3.03;;;1.50;;
13973;SDS011;7060;43.770;4.008;2023-12-20T02:19:57;5.00;;;2.10;;
13973;SDS011;7060;43.770;4.008;2023-12-20T02:22:27;3.97;;;2.30;;
13973;SDS011;7060;43.770;4.008;2023-12-20T02:24:56;4.17;;;2.00;;
13973;SDS011;7060;43.770;4.008;2023-12-20T02:27:25;3.53;;;2.03;;
13973;SDS011;7060;43.770;4.008;2023-12-20T02:29:53;4.83;;;2.00;;
13973;SDS011;7060;43.770;4.008;2023-12-20T02:32:22;4.60;;;1.83;;
13973;SDS011;7060;43.770;4.008;2023-12-20T02:34:53;4.73;;;2.03;;
13973;SDS011;7060;43.770;4.008;2023-12-20T02:37:23;3.73;;;1.80;;
13973;SDS011;7060;43.770;4.008;2023-12-20T02:39:53;3.03;;;1.70;;
13973;SDS011;7060;43.770;4.008;2023-12-20T02:42:22;4.93;;;2.00;;
13973;SDS011;7060;43.770;4.008;2023-12-20T02:44:51;5.00;;;2.47;;
13973;SDS011;7060;43.770;4.008;2023-12-20T02:47:19;3.13;;;1.97;;
13973;SDS011;7060;43.770;4.008;2023-12-20T02:49:48;4.43;;;2.00;;
13973;SDS011;7060;43.770;4.008;2023-12-20T02:52:17;3.57;;;2.00;;
13973;SDS011;7060;43.770;4.008;2023-12-20T02:54:46;4.17;;;2.40;;
13973;SDS011;7060;43.770;4.008;2023-12-20T02:57:16;2.87;;;1.90;;
13973;SDS011;7060;43.770;4.008;2023-12-20T02:59:44;3.63;;;2.10;;
13973;SDS011;7060;43.770;4.008;2023-12-20T03:02:13;3.53;;;2.03;;
13973;SDS011;7060;43.770;4.008;2023-12-20T03:04:42;3.13;;;1.90;;
13973;SDS011;7060;43.770;4.008;2023-12-20T03:07:10;3.70;;;1.87;;
13973;SDS011;7060;43.770;4.008;2023-12-20T03:09:40;3.30;;;1.80;;
13973;SDS011;7060;43.770;4.008;2023-12-20T03:12:30;4.50;;;2.07;;
13973;SDS011;7060;43.770;4.008;2023-12-20T03:14:58;2.63;;;1.53;;
13973;SDS011;7060;43.770;4.008;2023-12-20T03:17:27;3.33;;;1.80;;
13973;SDS011;7060;43.770;4.008;2023-12-20T03:19:55;2.67;;;1.53;;
13973;SDS011;7060;43.770;4.008;2023-12-20T03:22:24;4.83;;;1.47;;
13973;SDS011;7060;43.770;4.008;2023-12-20T03:24:52;2.30;;;1.33;;
13973;SDS011;7060;43.770;4.008;2023-12-20T03:27:21;2.43;;;1.20;;
13973;SDS011;7060;43.770;4.008;2023-12-20T03:29:51;4.93;;;2.63;;
13973;SDS011;7060;43.770;4.008;2023-12-20T03:32:20;5.67;;;2.73;;
13973;SDS011;7060;43.770;4.008;2023-12-20T03:34:49;3.50;;;1.90;;
13973;SDS011;7060;43.770;4.008;2023-12-20T03:37:18;3.20;;;1.90;;
13973;SDS011;7060;43.770;4.008;2023-12-20T03:39:46;4.10;;;1.80;;
13973;SDS011;7060;43.770;4.008;2023-12-20T03:42:15;3.07;;;1.23;;
13973;SDS011;7060;43.770;4.008;2023-12-20T03:44:44;2.30;;;0.97;;
13973;SDS011;7060;43.770;4.008;2023-12-20T03:47:14;1.17;;;0.60;;
13973;SDS011;7060;43.770;4.008;2023-12-20T03:49:42;2.20;;;0.87;;
13973;SDS011;7060;43.770;4.008;2023-12-20T03:52:12;1.30;;;0.80;;
13973;SDS011;7060;43.770;4.008;2023-12-20T03:54:40;1.10;;;0.70;;
13973;SDS011;7060;43.770;4.008;2023-12-20T03:57:09;0.70;;;0.50;;
13973;SDS011;7060;43.770;4.008;2023-12-20T03:59:38;0.93;;;0.60;;
13973;SDS011;7060;43.770;4.008;2023-12-20T04:02:06;1.43;;;0.70;;
13973;SDS011;7060;43.770;4.008;2023-12-20T04:08:01;0.83;;;0.60;;
13973;SDS011;7060;43.770;4.008;2023-12-20T04:10:30;2.30;;;0.60;;
13973;SDS011;7060;43.770;4.008;2023-12-20T04:12:59;1.40;;;0.63;;
13973;SDS011;7060;43.770;4.008;2023-12-20T04:15:27;1.40;;;0.73;;
13973;SDS011;7060;43.770;4.008;2023-12-20T04:17:56;1.27;;;0.60;;
13973;SDS011;7060;43.770;4.008;2023-12-20T04:20:25;1.07;;;0.50;;
13973;SDS011;7060;43.770;4.008;2023-12-20T04:22:53;0.70;;;0.47;;
13973;SDS011;7060;43.770;4.008;2023-12-20T04:25:23;0.53;;;0.40;;
13973;SDS011;7060;43.770;4.008;2023-12-20T04:27:52;1.00;;;0.50;;
13973;SDS011;7060;43.770;4.008;2023-12-20T04:30:21;0.73;;;0.50;;
13973;SDS011;7060;43.770;4.008;2023-12-20T04:32:50;2.97;;;0.80;;
13973;SDS011;7060;43.770;4.008;2023-12-20T04:35:18;3.05;;;0.60;;
13973;SDS011;7060;43.770;4.008;2023-12-20T04:37:47;1.47;;;0.67;;
13973;SDS011;7060;43.770;4.008;2023-12-20T04:40:16;0.60;;;0.50;;
13973;SDS011;7060;43.770;4.008;2023-12-20T04:42:46;1.10;;;0.60;;
13973;SDS011;7060;43.770;4.008;2023-12-20T04:45:15;1.23;;;0.50;;
13973;SDS011;7060;43.770;4.008;2023-12-20T04:47:45;1.33;;;0.67;;
13973;SDS011;7060;43.770;4.008;2023-12-20T04:50:15;0.80;;;0.60;;
13973;SDS011;7060;43.770;4.008;2023-12-20T04:52:44;1.30;;;0.50;;
13973;SDS011;7060;43.770;4.008;2023-12-20T04:55:12;1.00;;;0.60;;
13973;SDS011;7060;43.770;4.008;2023-12-20T04:57:41;2.67;;;0.53;;
13973;SDS011;7060;43.770;4.008;2023-12-20T05:00:13;1.67;;;0.67;;
13973;SDS011;7060;43.770;4.008;2023-12-20T05:02:42;1.53;;;0.57;;
13973;SDS011;7060;43.770;4.008;2023-12-20T05:05:10;1.03;;;0.63;;
13973;SDS011;7060;43.770;4.008;2023-12-20T05:07:39;1.50;;;0.70;;
13973;SDS011;7060;43.770;4.008;2023-12-20T05:10:09;1.00;;;0.70;;
13973;SDS011;7060;43.770;4.008;2023-12-20T05:12:37;1.43;;;0.80;;
13973;SDS011;7060;43.770;4.008;2023-12-20T05:15:07;1.43;;;0.80;;
13973;SDS011;7060;43.770;4.008;2023-12-20T05:17:37;2.43;;;0.80;;
13973;SDS011;7060;43.770;4.008;2023-12-20T05:20:07;1.60;;;0.93;;
13973;SDS011;7060;43.770;4.008;2023-12-20T05:22:37;2.30;;;0.80;;
13973;SDS011;7060;43.770;4.008;2023-12-20T05:25:05;1.27;;;0.70;;
13973;SDS011;7060;43.770;4.008;2023-12-20T05:27:34;0.50;;;0.40;;
13973;SDS011;7060;43.770;4.008;2023-12-20T05:30:03;0.67;;;0.37;;
13973;SDS011;7060;43.770;4.008;2023-12-20T05:32:32;0.60;;;0.50;;
13973;SDS011;7060;43.770;4.008;2023-12-20T05:35:03;0.90;;;0.50;;
13973;SDS011;7060;43.770;4.008;2023-12-20T05:37:32;0.90;;;0.63;;
13973;SDS011;7060;43.770;4.008;2023-12-20T05:40:00;1.15;;;0.57;;
13973;SDS011;7060;43.770;4.008;2023-12-20T05:42:29;0.67;;;0.40;;
13973;SDS011;7060;43.770;4.008;2023-12-20T05:44:58;0.50;;;0.30;;
13973;SDS011;7060;43.770;4.008;2023-12-20T05:47:26;0.23;;;0.20;;
13973;SDS011;7060;43.770;4.008;2023-12-20T05:49:55;1.50;;;0.60;;
13973;SDS011;7060;43.770;4.008;2023-12-20T05:52:25;0.70;;;0.40;;
13973;SDS011;7060;43.770;4.008;2023-12-20T05:54:53;0.50;;;0.40;;
13973;SDS011;7060;43.770;4.008;2023-12-20T05:57:22;0.50;;;0.30;;
13973;SDS011;7060;43.770;4.008;2023-12-20T05:59:51;0.50;;;0.20;;
13973;SDS011;7060;43.770;4.008;2023-12-20T06:02:19;0.77;;;0.40;;
13973;SDS011;7060;43.770;4.008;2023-12-20T06:04:48;0.80;;;0.50;;
13973;SDS011;7060;43.770;4.008;2023-12-20T06:07:17;1.50;;;0.63;;
13973;SDS011;7060;43.770;4.008;2023-12-20T06:09:47;1.80;;;0.47;;
13973;SDS011;7060;43.770;4.008;2023-12-20T06:12:16;1.70;;;0.80;;
13973;SDS011;7060;43.770;4.008;2023-12-20T06:14:44;0.97;;;0.43;;
13973;SDS011;7060;43.770;4.008;2023-12-20T06:17:13;1.70;;;0.63;;
13973;SDS011;7060;43.770;4.008;2023-12-20T06:19:42;2.43;;;0.60;;
13973;SDS011;7060;43.770;4.008;2023-12-20T06:22:12;2.70;;;1.07;;
13973;SDS011;7060;43.770;4.008;2023-12-20T06:24:40;2.97;;;0.67;;
13973;SDS011;7060;43.770;4.008;2023-12-20T06:27:10;1.87;;;0.60;;
13973;SDS011;7060;43.770;4.008;2023-12-20T06:29:39;3.00;;;1.70;;
13973;SDS011;7060;43.770;4.008;2023-12-20T06:32:09;3.07;;;1.10;;
13973;SDS011;7060;43.770;4.008;2023-12-20T06:34:38;2.87;;;1.40;;
13973;SDS011;7060;43.770;4.008;2023-12-20T06:37:06;2.40;;;1.40;;
13973;SDS011;7060;43.770;4.008;2023-12-20T06:39:35;3.03;;;1.17;;
13973;SDS011;7060;43.770;4.008;2023-12-20T06:42:04;2.70;;;1.23;;
13973;SDS011;7060;43.770;4.008;2023-12-20T06:44:34;3.67;;;1.50;;
13973;SDS011;7060;43.770;4.008;2023-12-20T06:47:03;2.17;;;0.93;;
13973;SDS011;7060;43.770;4.008;2023-12-20T06:49:32;1.70;;;0.63;;
13973;SDS011;7060;43.770;4.008;2023-12-20T06:52:01;2.00;;;0.80;;
13973;SDS011;7060;43.770;4.008;2023-12-20T06:54:30;1.17;;;0.60;;
13973;SDS011;7060;43.770;4.008;2023-12-20T06:57:00;0.80;;;0.60;;
13973;SDS011;7060;43.770;4.008;2023-12-20T06:59:29;1.67;;;1.07;;
13973;SDS011;7060;43.770;4.008;2023-12-20T07:01:59;6.80;;;4.83;;
13973;SDS011;7060;43.770;4.008;2023-12-20T07:04:28;8.03;;;4.83;;
13973;SDS011;7060;43.770;4.008;2023-12-20T07:06:57;2.73;;;1.27;;
13973;SDS011;7060;43.770;4.008;2023-12-20T07:09:27;2.17;;;1.20;;
13973;SDS011;7060;43.770;4.008;2023-12-20T07:11:55;1.97;;;0.80;;
13973;SDS011;7060;43.770;4.008;2023-12-20T07:14:25;1.40;;;0.60;;
13973;SDS011;7060;43.770;4.008;2023-12-20T07:16:54;3.00;;;1.63;;
13973;SDS011;7060;43.770;4.008;2023-12-20T07:19:25;11.57;;;6.33;;
13973;SDS011;7060;43.770;4.008;2023-12-20T07:21:54;20.20;;;10.83;;
13973;SDS011;7060;43.770;4.008;2023-12-20T07:24:23;15.83;;;8.33;;
13973;SDS011;7060;43.770;4.008;2023-12-20T07:26:52;11.70;;;6.30;;
13973;SDS011;7060;43.770;4.008;2023-12-20T07:29:20;10.33;;;4.70;;
13973;SDS011;7060;43.770;4.008;2023-12-20T07:31:49;8.43;;;4.73;;
13973;SDS011;7060;43.770;4.008;2023-12-20T07:34:19;6.43;;;2.93;;
13973;SDS011;7060;43.770;4.008;2023-12-20T07:36:49;2.93;;;1.37;;
13973;SDS011;7060;43.770;4.008;2023-12-20T07:39:17;2.10;;;1.17;;
13973;SDS011;7060;43.770;4.008;2023-12-20T07:41:46;1.37;;;0.70;;
13973;SDS011;7060;43.770;4.008;2023-12-20T07:44:15;1.70;;;0.70;;
13973;SDS011;7060;43.770;4.008;2023-12-20T07:46:43;1.00;;;0.60;;
13973;SDS011;7060;43.770;4.008;2023-12-20T07:49:12;0.23;;;0.20;;
13973;SDS011;7060;43.770;4.008;2023-12-20T07:51:41;0.20;;;0.10;;
13973;SDS011;7060;43.770;4.008;2023-12-20T07:54:11;0.10;;;0.10;;
13973;SDS011;7060;43.770;4.008;2023-12-20T07:56:40;0.13;;;0.10;;
13973;SDS011;7060;43.770;4.008;2023-12-20T07:59:08;0.20;;;0.10;;
13973;SDS011;7060;43.770;4.008;2023-12-20T08:01:51;0.10;;;0.00;;
13973;SDS011;7060;43.770;4.008;2023-12-20T08:04:20;0.07;;;0.03;;
13973;SDS011;7060;43.770;4.008;2023-12-20T08:06:49;0.20;;;0.10;;
13973;SDS011;7060;43.770;4.008;2023-12-20T08:09:20;0.47;;;0.03;;
13973;SDS011;7060;43.770;4.008;2023-12-20T08:11:48;0.00;;;0.00;;
13973;SDS011;7060;43.770;4.008;2023-12-20T08:14:17;0.10;;;0.03;;
13973;SDS011;7060;43.770;4.008;2023-12-20T08:16:48;0.00;;;0.00;;
13973;SDS011;7060;43.770;4.008;2023-12-20T08:19:16;2.90;;;1.30;;
13973;SDS011;7060;43.770;4.008;2023-12-20T08:21:45;2.70;;;0.80;;
13973;SDS011;7060;43.770;4.008;2023-12-20T08:24:14;1.73;;;0.77;;
13973;SDS011;7060;43.770;4.008;2023-12-20T08:26:44;5.10;;;2.37;;
13973;SDS011;7060;43.770;4.008;2023-12-20T08:29:13;3.30;;;1.10;;
13973;SDS011;7060;43.770;4.008;2023-12-20T08:31:42;3.50;;;1.10;;
13973;SDS011;7060;43.770;4.008;2023-12-20T08:34:10;1.23;;;0.87;;
13973;SDS011;7060;43.770;4.008;2023-12-20T08:36:42;3.43;;;1.00;;
13973;SDS011;7060;43.770;4.008;2023-12-20T08:39:10;1.73;;;0.90;;
13973;SDS011;7060;43.770;4.008;2023-12-20T08:41:39;1.50;;;1.20;;
13973;SDS011;7060;43.770;4.008;2023-12-20T08:44:09;1.90;;;0.70;;
13973;SDS011;7060;43.770;4.008;2023-12-20T08:46:38;3.40;;;2.07;;
13973;SDS011;7060;43.770;4.008;2023-12-20T08:49:06;2.20;;;0.87;;
13973;SDS011;7060;43.770;4.008;2023-12-20T08:51:36;4.73;;;1.80;;
13973;SDS011;7060;43.770;4.008;2023-12-20T08:54:08;3.87;;;1.70;;
13973;SDS011;7060;43.770;4.008;2023-12-20T08:56:37;3.63;;;2.30;;
13973;SDS011;7060;43.770;4.008;2023-12-20T08:59:06;4.00;;;2.67;;
13973;SDS011;7060;43.770;4.008;2023-12-20T09:01:36;2.80;;;1.80;;
13973;SDS011;7060;43.770;4.008;2023-12-20T09:04:04;3.10;;;2.00;;
13973;SDS011;7060;43.770;4.008;2023-12-20T09:06:34;2.03;;;1.13;;
13973;SDS011;7060;43.770;4.008;2023-12-20T09:09:03;1.67;;;1.00;;
13973;SDS011;7060;43.770;4.008;2023-12-20T09:11:32;2.43;;;1.40;;
13973;SDS011;7060;43.770;4.008;2023-12-20T09:14:01;3.23;;;1.60;;
13973;SDS011;7060;43.770;4.008;2023-12-20T09:16:30;4.47;;;2.30;;
13973;SDS011;7060;43.770;4.008;2023-12-20T09:19:01;6.37;;;2.73;;
13973;SDS011;7060;43.770;4.008;2023-12-20T09:21:29;2.67;;;1.70;;
13973;SDS011;7060;43.770;4.008;2023-12-20T09:23:58;1.90;;;1.30;;
13973;SDS011;7060;43.770;4.008;2023-12-20T09:26:26;2.13;;;0.97;;
13973;SDS011;7060;43.770;4.008;2023-12-20T09:28:55;2.40;;;1.10;;
13973;SDS011;7060;43.770;4.008;2023-12-20T09:31:24;1.60;;;0.70;;
13973;SDS011;7060;43.770;4.008;2023-12-20T09:33:53;1.87;;;0.60;;
13973;SDS011;7060;43.770;4.008;2023-12-20T09:36:24;0.70;;;0.40;;
13973;SDS011;7060;43.770;4.008;2023-12-20T09:38:52;0.40;;;0.20;;
13973;SDS011;7060;43.770;4.008;2023-12-20T09:41:21;0.40;;;0.20;;
13973;SDS011;7060;43.770;4.008;2023-12-20T09:43:53;0.50;;;0.17;;
13973;SDS011;7060;43.770;4.008;2023-12-20T09:46:25;0.67;;;0.20;;
13973;SDS011;7060;43.770;4.008;2023-12-20T09:48:58;0.70;;;0.37;;
13973;SDS011;7060;43.770;4.008;2023-12-20T09:51:30;1.97;;;0.20;;
13973;SDS011;7060;43.770;4.008;2023-12-20T09:53:58;0.47;;;0.20;;
13973;SDS011;7060;43.770;4.008;2023-12-20T09:56:30;0.20;;;0.10;;
13973;SDS011;7060;43.770;4.008;2023-12-20T09:58:59;0.77;;;0.10;;
13973;SDS011;7060;43.770;4.008;2023-12-20T10:01:28;0.27;;;0.10;;
13973;SDS011;7060;43.770;4.008;2023-12-20T10:03:58;0.30;;;0.20;;
13973;SDS011;7060;43.770;4.008;2023-12-20T10:06:33;0.70;;;0.40;;
13973;SDS011;7060;43.770;4.008;2023-12-20T10:09:02;3.97;;;0.27;;
13973;SDS011;7060;43.770;4.008;2023-12-20T10:11:30;0.23;;;0.10;;
13973;SDS011;7060;43.770;4.008;2023-12-20T10:14:00;0.63;;;0.10;;
13973;SDS011;7060;43.770;4.008;2023-12-20T10:16:29;0.20;;;0.20;;
13973;SDS011;7060;43.770;4.008;2023-12-20T10:18:59;0.20;;;0.10;;
13973;SDS011;7060;43.770;4.008;2023-12-20T10:21:29;0.27;;;0.10;;
13973;SDS011;7060;43.770;4.008;2023-12-20T10:24:00;0.20;;;0.20;;
13973;SDS011;7060;43.770;4.008;2023-12-20T10:26:29;1.50;;;0.13;;
13973;SDS011;7060;43.770;4.008;2023-12-20T10:28:59;1.13;;;0.10;;
13973;SDS011;7060;43.770;4.008;2023-12-20T10:31:30;0.83;;;0.17;;
13973;SDS011;7060;43.770;4.008;2023-12-20T10:34:00;0.10;;;0.03;;
13973;SDS011;7060;43.770;4.008;2023-12-20T10:36:30;0.10;;;0.10;;
13973;SDS011;7060;43.770;4.008;2023-12-20T10:39:02;0.57;;;0.10;;
13973;SDS011;7060;43.770;4.008;2023-12-20T10:41:32;0.20;;;0.10;;
13973;SDS011;7060;43.770;4.008;2023-12-20T10:44:02;0.23;;;0.10;;
13973;SDS011;7060;43.770;4.008;2023-12-20T10:46:33;1.43;;;0.10;;
13973;SDS011;7060;43.770;4.008;2023-12-20T10:49:03;0.17;;;0.13;;
13973;SDS011;7060;43.770;4.008;2023-12-20T10:51:33;1.60;;;0.17;;
13973;SDS011;7060;43.770;4.008;2023-12-20T10:54:04;0.40;;;0.20;;
13973;SDS011;7060;43.770;4.008;2023-12-20T10:56:33;0.30;;;0.10;;
13973;SDS011;7060;43.770;4.008;2023-12-20T10:59:04;0.30;;;0.17;;
13973;SDS011;7060;43.770;4.008;2023-12-20T11:01:36;0.20;;;0.20;;
13973;SDS011;7060;43.770;4.008;2023-12-20T11:04:10;0.57;;;0.50;;
13973;SDS011;7060;43.770;4.008;2023-12-20T11:06:46;0.27;;;0.20;;
13973;SDS011;7060;43.770;4.008;2023-12-20T11:09:22;0.20;;;0.13;;
13973;SDS011;7060;43.770;4.008;2023-12-20T11:11:59;0.40;;;0.20;;
13973;SDS011;7060;43.770;4.008;2023-12-20T11:14:35;0.40;;;0.13;;
13973;SDS011;7060;43.770;4.008;2023-12-20T11:17:15;0.10;;;0.10;;
13973;SDS011;7060;43.770;4.008;2023-12-20T11:22:37;0.10;;;0.10;;
13973;SDS011;7060;43.770;4.008;2023-12-20T11:25:10;0.10;;;0.00;;
13973;SDS011;7060;43.770;4.008;2023-12-20T11:27:41;0.60;;;0.30;;
13973;SDS011;7060;43.770;4.008;2023-12-20T11:30:13;0.30;;;0.20;;
13973;SDS011;7060;43.770;4.008;2023-12-20T11:32:44;0.20;;;0.13;;
13973;SDS011;7060;43.770;4.008;2023-12-20T11:35:18;0.10;;;0.00;;
13973;SDS011;7060;43.770;4.008;2023-12-20T11:37:48;0.10;;;0.00;;
13973;SDS011;7060;43.770;4.008;2023-12-20T11:40:18;0.20;;;0.03;;
13973;SDS011;7060;43.770;4.008;2023-12-20T11:42:49;1.30;;;0.00;;
13973;SDS011;7060;43.770;4.008;2023-12-20T11:45:20;0.70;;;0.27;;
13973;SDS011;7060;43.770;4.008;2023-12-20T11:47:51;0.30;;;0.10;;
13973;SDS011;7060;43.770;4.008;2023-12-20T11:50:21;0.10;;;0.00;;
13973;SDS011;7060;43.770;4.008;2023-12-20T11:52:52;1.47;;;0.20;;
13973;SDS011;7060;43.770;4.008;2023-12-20T11:55:23;2.37;;;0.37;;
13973;SDS011;7060;43.770;4.008;2023-12-20T11:57:53;1.03;;;0.47;;
13973;SDS011;7060;43.770;4.008;2023-12-20T12:00:21;0.63;;;0.30;;
13973;SDS011;7060;43.770;4.008;2023-12-20T12:02:57;0.70;;;0.37;;
13973;SDS011;7060;43.770;4.008;2023-12-20T12:05:26;0.37;;;0.20;;
13973;SDS011;7060;43.770;4.008;2023-12-20T12:07:55;1.00;;;0.40;;
13973;SDS011;7060;43.770;4.008;2023-12-20T12:10:25;0.23;;;0.13;;
13973;SDS011;7060;43.770;4.008;2023-12-20T12:12:54;0.30;;;0.20;;
13973;SDS011;7060;43.770;4.008;2023-12-20T12:15:23;0.13;;;0.00;;
13973;SDS011;7060;43.770;4.008;2023-12-20T12:17:55;0.10;;;0.10;;
13973;SDS011;7060;43.770;4.008;2023-12-20T12:20:24;0.40;;;0.17;;
13973;SDS011;7060;43.770;4.008;2023-12-20T12:22:59;0.30;;;0.17;;
13973;SDS011;7060;43.770;4.008;2023-12-20T12:25:30;1.00;;;0.10;;
13973;SDS011;7060;43.770;4.008;2023-12-20T12:27:59;0.67;;;0.10;;
13973;SDS011;7060;43.770;4.008;2023-12-20T12:30:28;0.10;;;0.00;;
13973;SDS011;7060;43.770;4.008;2023-12-20T12:33:04;0.10;;;0.10;;
13973;SDS011;7060;43.770;4.008;2023-12-20T12:35:34;0.20;;;0.10;;
13973;SDS011;7060;43.770;4.008;2023-12-20T12:38:02;0.20;;;0.10;;
13973;SDS011;7060;43.770;4.008;2023-12-20T12:40:34;0.30;;;0.20;;
13973;SDS011;7060;43.770;4.008;2023-12-20T12:43:03;0.57;;;0.10;;
13973;SDS011;7060;43.770;4.008;2023-12-20T12:45:33;1.00;;;0.20;;
13973;SDS011;7060;43.770;4.008;2023-12-20T12:48:03;0.87;;;0.10;;
13973;SDS011;7060;43.770;4.008;2023-12-20T12:50:31;0.40;;;0.30;;
13973;SDS011;7060;43.770;4.008;2023-12-20T12:53:01;0.57;;;0.20;;
13973;SDS011;7060;43.770;4.008;2023-12-20T12:55:30;2.63;;;0.30;;
13973;SDS011;7060;43.770;4.008;2023-12-20T12:58:00;0.33;;;0.17;;
13973;SDS011;7060;43.770;4.008;2023-12-20T13:00:29;0.40;;;0.20;;
13973;SDS011;7060;43.770;4.008;2023-12-20T13:02:58;4.60;;;0.30;;
13973;SDS011;7060;43.770;4.008;2023-12-20T13:05:26;0.20;;;0.10;;
13973;SDS011;7060;43.770;4.008;2023-12-20T13:07:55;0.20;;;0.10;;
13973;SDS011;7060;43.770;4.008;2023-12-20T13:10:25;0.27;;;0.10;;
13973;SDS011;7060;43.770;4.008;2023-12-20T13:13:02;0.30;;;0.10;;
13973;SDS011;7060;43.770;4.008;2023-12-20T13:15:31;0.77;;;0.10;;
13973;SDS011;7060;43.770;4.008;2023-12-20T13:18:08;0.33;;;0.10;;
13973;SDS011;7060;43.770;4.008;2023-12-20T13:20:37;0.20;;;0.10;;
13973;SDS011;7060;43.770;4.008;2023-12-20T13:23:07;0.60;;;0.17;;
13973;SDS011;7060;43.770;4.008;2023-12-20T13:25:35;0.40;;;0.17;;
13973;SDS011;7060;43.770;4.008;2023-12-20T13:28:15;0.80;;;0.30;;
13973;SDS011;7060;43.770;4.008;2023-12-20T13:30:44;1.17;;;0.20;;
13973;SDS011;7060;43.770;4.008;2023-12-20T13:33:17;0.30;;;0.20;;
13973;SDS011;7060;43.770;4.008;2023-12-20T13:35:46;0.57;;;0.20;;
13973;SDS011;7060;43.770;4.008;2023-12-20T13:38:17;0.60;;;0.20;;
13973;SDS011;7060;43.770;4.008;2023-12-20T13:40:46;0.20;;;0.10;;
13973;SDS011;7060;43.770;4.008;2023-12-20T13:43:16;0.60;;;0.20;;
13973;SDS011;7060;43.770;4.008;2023-12-20T13:45:50;1.07;;;0.30;;
13973;SDS011;7060;43.770;4.008;2023-12-20T13:48:22;0.60;;;0.30;;
13973;SDS011;7060;43.770;4.008;2023-12-20T13:50:50;0.33;;;0.20;;
13973;SDS011;7060;43.770;4.008;2023-12-20T13:53:19;2.00;;;0.30;;
13973;SDS011;7060;43.770;4.008;2023-12-20T13:55:48;0.30;;;0.10;;
13973;SDS011;7060;43.770;4.008;2023-12-20T13:58:18;1.20;;;0.20;;
13973;SDS011;7060;43.770;4.008;2023-12-20T14:00:48;0.93;;;0.40;;
13973;SDS011;7060;43.770;4.008;2023-12-20T14:03:17;1.00;;;0.30;;
13973;SDS011;7060;43.770;4.008;2023-12-20T14:05:46;0.50;;;0.30;;
13973;SDS011;7060;43.770;4.008;2023-12-20T14:08:15;0.67;;;0.30;;
13973;SDS011;7060;43.770;4.008;2023-12-20T14:10:44;0.77;;;0.30;;
13973;SDS011;7060;43.770;4.008;2023-12-20T14:13:13;1.43;;;0.23;;
13973;SDS011;7060;43.770;4.008;2023-12-20T14:15:43;0.40;;;0.30;;
13973;SDS011;7060;43.770;4.008;2023-12-20T14:18:13;2.83;;;0.30;;
13973;SDS011;7060;43.770;4.008;2023-12-20T14:20:42;0.40;;;0.20;;
13973;SDS011;7060;43.770;4.008;2023-12-20T14:23:11;0.50;;;0.20;;
13973;SDS011;7060;43.770;4.008;2023-12-20T14:25:41;0.20;;;0.20;;
13973;SDS011;7060;43.770;4.008;2023-12-20T14:28:17;0.20;;;0.20;;
13973;SDS011;7060;43.770;4.008;2023-12-20T14:30:48;0.50;;;0.30;;
13973;SDS011;7060;43.770;4.008;2023-12-20T14:33:17;0.30;;;0.20;;
13973;SDS011;7060;43.770;4.008;2023-12-20T14:35:48;1.07;;;0.30;;
13973;SDS011;7060;43.770;4.008;2023-12-20T14:38:17;0.23;;;0.20;;
13973;SDS011;7060;43.770;4.008;2023-12-20T14:40:46;0.60;;;0.30;;
13973;SDS011;7060;43.770;4.008;2023-12-20T14:43:14;1.33;;;0.20;;
13973;SDS011;7060;43.770;4.008;2023-12-20T14:45:44;0.70;;;0.40;;
13973;SDS011;7060;43.770;4.008;2023-12-20T14:48:14;1.03;;;0.27;;
13973;SDS011;7060;43.770;4.008;2023-12-20T14:50:44;0.30;;;0.30;;
13973;SDS011;7060;43.770;4.008;2023-12-20T14:53:15;0.10;;;0.10;;
13973;SDS011;7060;43.770;4.008;2023-12-20T14:55:49;1.17;;;0.30;;
13973;SDS011;7060;43.770;4.008;2023-12-20T14:58:18;0.70;;;0.20;;
13973;SDS011;7060;43.770;4.008;2023-12-20T15:00:47;1.53;;;0.60;;
13973;SDS011;7060;43.770;4.008;2023-12-20T15:03:17;1.73;;;0.80;;
13973;SDS011;7060;43.770;4.008;2023-12-20T15:05:45;1.00;;;0.40;;
13973;SDS011;7060;43.770;4.008;2023-12-20T15:08:14;1.03;;;0.30;;
13973;SDS011;7060;43.770;4.008;2023-12-20T15:10:43;1.50;;;0.40;;
13973;SDS011;7060;43.770;4.008;2023-12-20T15:13:12;0.77;;;0.33;;
13973;SDS011;7060;43.770;4.008;2023-12-20T15:15:41;1.33;;;0.30;;
13973;SDS011;7060;43.770;4.008;2023-12-20T15:18:13;2.07;;;0.37;;
13973;SDS011;7060;43.770;4.008;2023-12-20T15:20:43;1.00;;;0.30;;